MST,Max TemperatureF,Mean TemperatureF,Min TemperatureF,Max Dew PointF,MeanDew PointF,Min DewpointF,Max Humidity, Mean Humidity, Min Humidity, Max Sea Level PressureIn, Mean Sea Level PressureIn, Min Sea Level PressureIn, Max VisibilityMiles, Mean VisibilityMiles, Min VisibilityMiles, Max Wind SpeedMPH, Mean Wind SpeedMPH, Max Gust SpeedMPH,PrecipitationIn, CloudCover, Events, WindDirDegrees
2013-11-1,54,43,32,37,34,29,92,69,45,30.32,30.25,30.15,10,10,10,23,11,30,0.00,4,,227
2013-11-2,62,44,25,34,27,23,92,58,23,30.20,29.93,29.73,10,10,10,31,16,37,0.00,2,,207
2013-11-3,42,36,29,32,21,16,70,54,37,30.06,29.92,29.78,10,10,10,33,22,40,0.00,4,,230
2013-11-4,42,32,21,20,17,15,75,56,37,30.17,30.09,30.03,10,10,10,22,12,29,T,4,Snow,221
2013-11-5,40,28,16,24,18,12,92,63,33,30.37,30.29,30.13,10,10,9,22,11,29,T,4,Snow,216
2013-11-6,49,42,34,34,29,22,70,61,52,30.39,30.35,30.29,10,10,5,26,16,30,0.01,7,Snow,201
2013-11-7,58,48,37,35,26,22,79,53,27,30.35,30.12,29.83,10,10,10,30,16,38,T,7,Rain,175
2013-11-8,53,46,39,35,26,20,61,47,32,30.12,30.04,29.89,10,10,10,31,20,39,0.00,7,,227
2013-11-9,56,39,21,27,22,16,78,52,26,30.26,30.21,30.14,10,10,10,13,5,15,0.00,0,,167
2013-11-10,63,42,21,30,25,19,92,59,25,30.34,30.26,30.19,10,10,10,13,5,14,0.00,0,,32
2013-11-11,64,44,24,27,24,22,78,49,20,30.46,30.35,30.22,10,10,10,9,4,10,0.00,0,,43
2013-11-12,66,43,19,27,25,19,92,56,20,30.54,30.43,30.32,10,10,10,22,5,25,0.00,0,,43
2013-11-13,54,46,38,36,29,24,70,51,32,30.31,30.26,30.21,10,10,10,28,11,32,T,3,Rain,218
2013-11-14,53,40,27,30,25,20,85,56,26,30.27,30.03,29.81,10,10,10,22,8,31,0.00,1,,193
2013-11-15,40,35,30,29,25,20,82,65,48,29.89,29.77,29.63,10,10,10,23,15,27,0.00,6,,227
2013-11-16,41,36,31,32,28,21,100,76,52,29.79,29.56,29.46,10,6,1,38,20,46,0.10,6,Rain-Snow,225
2013-11-17,46,36,25,26,24,21,78,59,40,30.16,30.04,29.81,10,10,10,26,14,31,0.00,3,,220
2013-11-18,58,39,20,29,25,19,92,62,32,30.23,30.08,29.86,10,10,10,23,9,29,0.00,0,,131
2013-11-19,51,46,40,40,34,27,86,62,38,29.92,29.87,29.84,10,10,10,25,14,31,0.01,6,Rain,212
2013-11-20,46,39,31,40,34,24,96,78,60,30.05,29.89,29.80,10,8,2,20,11,23,0.30,8,Rain-Snow,237
2013-11-21,34,27,19,22,12,7,78,55,32,30.59,30.36,30.06,10,10,10,26,13,35,0.00,0,,49
2013-11-22,40,23,6,16,11,4,92,60,27,30.70,30.61,30.56,10,10,10,13,4,16,0.00,0,,33
2013-11-23,46,28,9,20,15,5,92,60,28,30.60,30.45,30.32,10,10,10,18,5,22,0.00,0,,40
2013-11-24,39,27,15,20,16,11,84,64,44,30.38,30.33,30.27,10,10,10,12,6,14,0.00,0,,210
2013-11-25,44,29,13,21,18,12,88,62,36,30.54,30.47,30.38,10,10,10,12,3,16,0.00,0,,271
2013-11-26,49,33,16,23,19,13,92,63,34,30.56,30.45,30.34,10,10,10,9,4,13,0.00,0,,26
2013-11-27,53,34,14,26,21,12,91,63,35,30.32,30.23,30.13,10,10,10,8,2,10,0.00,0,,48
2013-11-28,49,33,17,26,22,15,92,66,39,30.25,30.19,30.13,10,10,9,9,3,11,0.00,0,,33
2013-11-29,48,34,20,27,24,19,92,67,42,30.38,30.31,30.22,10,10,6,10,3,12,0.00,0,,235
2013-11-30,47,34,21,34,28,21,92,69,45,30.38,30.33,30.28,10,10,6,20,7,23,0.03,6,Rain,214